createdAt,value
2018-12-02T00:00:04.916Z,989.19
2018-12-02T00:01:04.928Z,989.15
2018-12-02T00:02:04.894Z,989.17
2018-12-02T00:03:04.896Z,989.16
2018-12-02T00:04:04.873Z,989.18
2018-12-02T00:05:04.863Z,989.17
2018-12-02T00:06:04.870Z,989.17
2018-12-02T00:07:04.838Z,989.14
2018-12-02T00:08:04.827Z,989.13
2018-12-02T00:09:04.822Z,989.12
2018-12-02T00:10:04.804Z,989.16
2018-12-02T00:11:04.815Z,989.18
2018-12-02T00:12:04.780Z,989.16
2018-12-02T00:13:04.770Z,989.11
2018-12-02T00:14:04.758Z,989.17
2018-12-02T00:15:04.765Z,989.12
2018-12-02T00:16:04.770Z,989.14
2018-12-02T00:17:04.730Z,989.12
2018-12-02T00:18:04.714Z,989.05
2018-12-02T00:19:04.702Z,989.14
2018-12-02T00:20:04.695Z,989.07
2018-12-02T00:21:04.717Z,989.05
2018-12-02T00:22:04.671Z,989.08
2018-12-02T00:23:04.659Z,989.07
2018-12-02T00:24:04.647Z,989.07
2018-12-02T00:25:04.658Z,989.03
2018-12-02T00:26:04.624Z,989.06
2018-12-02T00:27:04.663Z,989.07
2018-12-02T00:28:04.602Z,989.01
2018-12-02T00:29:04.589Z,989.04
2018-12-02T00:30:04.582Z,988.95
2018-12-02T00:31:04.568Z,988.96
2018-12-02T00:32:04.583Z,989.02
2018-12-02T00:33:04.560Z,988.93
2018-12-02T00:34:04.533Z,988.96
2018-12-02T00:35:04.520Z,988.94
2018-12-02T00:36:04.510Z,988.96
2018-12-02T00:37:04.527Z,989.01
2018-12-02T00:38:04.488Z,988.98
2018-12-02T00:39:04.488Z,988.97
2018-12-02T00:40:04.465Z,988.97
2018-12-02T00:41:04.459Z,988.98
2018-12-02T00:42:04.464Z,988.91
2018-12-02T00:43:04.431Z,988.91
2018-12-02T00:44:04.419Z,988.89
2018-12-02T00:45:04.431Z,988.90
2018-12-02T00:46:04.397Z,988.85
2018-12-02T00:47:04.408Z,988.90
2018-12-02T00:48:04.396Z,988.85
2018-12-02T00:49:04.393Z,988.83
2018-12-02T00:50:04.351Z,988.80
2018-12-02T00:51:04.383Z,988.78
2018-12-02T00:52:04.331Z,988.72
2018-12-02T00:53:04.322Z,988.73
2018-12-02T00:54:04.336Z,988.71
2018-12-02T00:55:04.295Z,988.74
2018-12-02T00:56:04.284Z,988.70
2018-12-02T00:57:04.272Z,988.66
2018-12-02T00:58:04.324Z,988.65
2018-12-02T00:59:04.250Z,988.66
2018-12-02T01:00:04.238Z,988.62
2018-12-02T01:01:04.227Z,988.57
2018-12-02T01:02:04.217Z,988.55
2018-12-02T01:03:04.229Z,988.59
2018-12-02T01:04:04.238Z,988.53
2018-12-02T01:05:04.185Z,988.52
2018-12-02T01:06:04.170Z,988.53
2018-12-02T01:07:04.160Z,988.49
2018-12-02T01:08:04.149Z,988.46
2018-12-02T01:09:04.159Z,988.47
2018-12-02T01:10:04.147Z,988.45
2018-12-02T01:11:04.136Z,988.44
2018-12-02T01:12:04.104Z,988.45
2018-12-02T01:13:04.092Z,988.44
2018-12-02T01:14:04.080Z,988.48
2018-12-02T01:15:04.070Z,988.47
2018-12-02T01:16:04.105Z,988.45
2018-12-02T01:17:04.046Z,988.43
2018-12-02T01:18:04.036Z,988.44
2018-12-02T01:19:04.024Z,988.38
2018-12-02T01:20:04.011Z,988.36
2018-12-02T01:21:04.023Z,988.32
2018-12-02T01:22:04.008Z,988.35
2018-12-02T01:23:03.977Z,988.34
2018-12-02T01:24:03.969Z,988.31
2018-12-02T01:25:03.954Z,988.33
2018-12-02T01:26:03.958Z,988.32
2018-12-02T01:27:03.932Z,988.34
2018-12-02T01:28:03.934Z,988.29
2018-12-02T01:29:03.909Z,988.34
2018-12-02T01:30:03.902Z,988.34
2018-12-02T01:31:03.911Z,988.33
2018-12-02T01:32:03.876Z,988.31
2018-12-02T01:33:03.864Z,988.30
2018-12-02T01:34:03.860Z,988.34
2018-12-02T01:35:03.841Z,988.28
2018-12-02T01:36:03.855Z,988.31
2018-12-02T01:37:03.820Z,988.33
2018-12-02T01:38:03.807Z,988.33
2018-12-02T01:39:03.802Z,988.36
2018-12-02T01:40:03.817Z,988.30
2018-12-02T01:41:03.773Z,988.31
2018-12-02T01:42:03.769Z,988.33
2018-12-02T01:43:03.768Z,988.33
2018-12-02T01:44:03.740Z,988.29
2018-12-02T01:45:03.733Z,988.26
2018-12-02T01:46:03.764Z,988.27
2018-12-02T01:47:03.706Z,988.22
2018-12-02T01:48:03.696Z,988.22
2018-12-02T01:49:03.684Z,988.13
2018-12-02T01:50:03.671Z,988.13
2018-12-02T01:51:03.684Z,988.11
2018-12-02T01:52:03.653Z,988.07
2018-12-02T01:53:03.672Z,988.09
2018-12-02T01:54:03.628Z,988.08
2018-12-02T01:55:03.615Z,988.02
2018-12-02T01:56:03.605Z,987.99
2018-12-02T01:57:03.594Z,987.98
2018-12-02T01:58:03.615Z,987.94
2018-12-02T01:59:03.572Z,987.88
2018-12-02T02:00:03.559Z,987.86
2018-12-02T02:01:03.566Z,987.83
2018-12-02T02:02:03.536Z,987.83
2018-12-02T02:03:03.547Z,987.85
2018-12-02T02:04:03.521Z,987.78
2018-12-02T02:05:03.501Z,987.76
2018-12-02T02:06:03.490Z,987.79
2018-12-02T02:07:03.480Z,987.75
2018-12-02T02:08:03.493Z,987.70
2018-12-02T02:09:03.458Z,987.70
2018-12-02T02:10:03.457Z,987.67
2018-12-02T02:11:03.457Z,987.59
2018-12-02T02:12:03.423Z,987.58
2018-12-02T02:13:03.411Z,987.61
2018-12-02T02:14:03.400Z,987.56
2018-12-02T02:15:03.388Z,987.52
2018-12-02T02:16:03.415Z,987.49
2018-12-02T02:17:03.367Z,987.47
2018-12-02T02:18:03.355Z,987.59
2018-12-02T02:19:03.344Z,987.51
2018-12-02T02:20:03.335Z,987.52
2018-12-02T02:21:03.346Z,987.45
2018-12-02T02:22:03.313Z,987.39
2018-12-02T02:23:03.322Z,987.38
2018-12-02T02:24:03.314Z,987.32
2018-12-02T02:25:03.282Z,987.29
2018-12-02T02:26:03.268Z,987.21
2018-12-02T02:27:03.268Z,987.20
2018-12-02T02:28:03.242Z,987.23
2018-12-02T02:29:03.244Z,987.20
2018-12-02T02:30:03.223Z,987.22
2018-12-02T02:31:03.250Z,987.18
2018-12-02T02:32:03.196Z,987.21
2018-12-02T02:33:03.186Z,987.19
2018-12-02T02:34:03.180Z,987.21
2018-12-02T02:35:03.176Z,987.19
2018-12-02T02:36:03.194Z,987.21
2018-12-02T02:37:03.141Z,987.17
2018-12-02T02:38:03.128Z,987.18
2018-12-02T02:39:03.117Z,987.15
2018-12-02T02:40:03.109Z,987.09
2018-12-02T02:41:03.141Z,987.02
2018-12-02T02:42:03.084Z,986.97
2018-12-02T02:43:03.071Z,986.95
2018-12-02T02:44:03.062Z,986.92
2018-12-02T02:45:03.050Z,986.88
2018-12-02T02:46:03.061Z,986.89
2018-12-02T02:47:03.041Z,986.81
2018-12-02T02:48:03.016Z,986.83
2018-12-02T02:49:03.026Z,986.77
2018-12-02T02:50:03.001Z,986.76
2018-12-02T02:51:03.016Z,986.76
2018-12-02T02:52:02.989Z,986.78
2018-12-02T02:53:02.959Z,986.74
2018-12-02T02:54:02.976Z,986.69
2018-12-02T02:55:02.938Z,986.68
2018-12-02T02:56:02.929Z,986.72
2018-12-02T02:57:02.964Z,986.68
2018-12-02T02:58:02.903Z,986.64
2018-12-02T02:59:02.892Z,986.63
2018-12-02T03:00:02.879Z,986.64
2018-12-02T03:01:02.913Z,986.59
2018-12-02T03:02:02.859Z,986.60
2018-12-02T03:03:02.856Z,986.59
2018-12-02T03:04:02.834Z,986.64
2018-12-02T03:05:02.831Z,986.63
2018-12-02T03:06:02.837Z,986.64
2018-12-02T03:07:02.802Z,986.63
2018-12-02T03:08:02.790Z,986.64
2018-12-02T03:09:02.798Z,986.67
2018-12-02T03:10:02.765Z,986.60
2018-12-02T03:11:02.782Z,986.66
2018-12-02T03:12:02.743Z,986.58
2018-12-02T03:13:02.731Z,986.57
2018-12-02T03:14:02.720Z,986.54
2018-12-02T03:15:02.726Z,986.59
2018-12-02T03:16:02.728Z,986.47
2018-12-02T03:17:02.689Z,986.49
2018-12-02T03:18:02.677Z,986.57
2018-12-02T03:19:02.666Z,986.52
2018-12-02T03:20:02.670Z,986.47
2018-12-02T03:21:02.771Z,986.46
2018-12-02T03:22:02.631Z,986.50
2018-12-02T03:23:02.619Z,986.39
2018-12-02T03:24:02.608Z,986.40
2018-12-02T03:25:02.601Z,986.36
2018-12-02T03:26:02.609Z,986.28
2018-12-02T03:27:02.581Z,986.30
2018-12-02T03:28:02.566Z,986.26
2018-12-02T03:29:02.581Z,986.31
2018-12-02T03:30:02.542Z,986.33
2018-12-02T03:31:02.533Z,986.30
2018-12-02T03:32:02.544Z,986.27
2018-12-02T03:33:02.560Z,986.30
2018-12-02T03:34:02.496Z,986.30
2018-12-02T03:35:02.492Z,986.21
2018-12-02T03:36:02.476Z,986.20
2018-12-02T03:37:02.464Z,986.17
2018-12-02T03:38:02.474Z,986.16
2018-12-02T03:39:02.450Z,986.13
2018-12-02T03:40:02.428Z,986.04
2018-12-02T03:41:02.421Z,986.08
2018-12-02T03:42:02.410Z,985.96
2018-12-02T03:43:02.422Z,985.97
2018-12-02T03:44:02.382Z,985.99
2018-12-02T03:45:02.420Z,985.97
2018-12-02T03:46:02.381Z,985.96
2018-12-02T03:47:02.390Z,985.88
2018-12-02T03:48:02.336Z,985.91
2018-12-02T03:49:02.349Z,985.86
2018-12-02T03:50:02.316Z,985.97
2018-12-02T03:51:02.314Z,985.94
2018-12-02T03:52:02.304Z,985.95
2018-12-02T03:53:02.308Z,985.91
2018-12-02T03:54:02.300Z,985.87
2018-12-02T03:55:02.258Z,985.86
2018-12-02T03:56:02.281Z,985.80
2018-12-02T03:57:02.256Z,985.72
2018-12-02T03:58:02.224Z,985.76
2018-12-02T03:59:02.212Z,985.75
2018-12-02T04:00:02.202Z,985.71
2018-12-02T04:01:02.221Z,985.71
2018-12-02T04:02:02.179Z,985.67
2018-12-02T04:03:02.197Z,985.66
2018-12-02T04:04:02.155Z,985.66
2018-12-02T04:05:02.176Z,985.68
2018-12-02T04:06:02.133Z,985.68
2018-12-02T04:07:02.122Z,985.67
2018-12-02T04:08:02.130Z,985.67
2018-12-02T04:09:02.112Z,985.69
2018-12-02T04:10:02.116Z,985.69
2018-12-02T04:11:02.105Z,985.69
2018-12-02T04:12:02.066Z,985.73
2018-12-02T04:13:02.061Z,985.71
2018-12-02T04:14:02.044Z,985.76
2018-12-02T04:15:02.049Z,985.77
2018-12-02T04:16:02.048Z,985.79
2018-12-02T04:17:02.011Z,985.84
2018-12-02T04:18:01.999Z,985.87
2018-12-02T04:19:01.991Z,985.82
2018-12-02T04:20:02.029Z,985.82
2018-12-02T04:21:01.965Z,985.75
2018-12-02T04:22:01.955Z,985.77
2018-12-02T04:23:01.942Z,985.72
2018-12-02T04:24:01.932Z,985.71
2018-12-02T04:25:01.940Z,985.72
2018-12-02T04:26:01.965Z,985.74
2018-12-02T04:27:01.901Z,985.66
2018-12-02T04:28:01.887Z,985.69
2018-12-02T04:29:01.875Z,985.68
2018-12-02T04:30:01.898Z,985.68
2018-12-02T04:31:01.880Z,985.65
2018-12-02T04:32:01.852Z,985.72
2018-12-02T04:33:01.850Z,985.68
2018-12-02T04:34:01.819Z,985.67
2018-12-02T04:35:01.809Z,985.64
2018-12-02T04:36:01.820Z,985.66
2018-12-02T04:37:01.788Z,985.61
2018-12-02T04:38:01.811Z,985.66
2018-12-02T04:39:01.765Z,985.60
2018-12-02T04:40:01.755Z,985.50
2018-12-02T04:41:01.739Z,985.56
2018-12-02T04:42:01.729Z,985.56
2018-12-02T04:43:01.737Z,985.61
2018-12-02T04:44:01.715Z,985.59
2018-12-02T04:45:01.696Z,985.46
2018-12-02T04:46:01.707Z,985.42
2018-12-02T04:47:01.671Z,985.40
2018-12-02T04:48:01.687Z,985.40
2018-12-02T04:49:01.650Z,985.43
2018-12-02T04:50:01.653Z,985.38
2018-12-02T04:51:01.630Z,985.42
2018-12-02T04:52:01.621Z,985.38
2018-12-02T04:53:01.635Z,985.39
2018-12-02T04:54:01.599Z,985.36
2018-12-02T04:55:01.585Z,985.34
2018-12-02T04:56:01.589Z,985.34
2018-12-02T04:57:01.562Z,985.32
2018-12-02T04:58:01.570Z,985.34
2018-12-02T04:59:01.536Z,985.28
2018-12-02T05:00:01.527Z,985.28
2018-12-02T05:01:01.531Z,985.28
2018-12-02T05:02:01.551Z,985.22
2018-12-02T05:03:01.515Z,985.23
2018-12-02T05:04:01.480Z,985.29
2018-12-02T05:05:01.469Z,985.29
2018-12-02T05:06:01.458Z,985.24
2018-12-02T05:07:01.446Z,985.22
2018-12-02T05:08:01.462Z,985.18
2018-12-02T05:09:01.450Z,985.18
2018-12-02T05:10:01.432Z,985.15
2018-12-02T05:11:01.433Z,985.20
2018-12-02T05:12:01.390Z,985.12
2018-12-02T05:13:01.378Z,985.01
2018-12-02T05:14:01.404Z,985.01
2018-12-02T05:15:01.370Z,985.01
2018-12-02T05:16:01.364Z,985.03
2018-12-02T05:17:01.369Z,985.00
2018-12-02T05:18:01.323Z,984.99
2018-12-02T05:19:01.310Z,984.99
2018-12-02T05:20:01.299Z,985.00
2018-12-02T05:21:01.298Z,985.01
2018-12-02T05:22:01.317Z,984.96
2018-12-02T05:23:01.268Z,984.97
2018-12-02T05:24:01.254Z,984.93
2018-12-02T05:25:01.261Z,984.87
2018-12-02T05:26:01.233Z,984.89
2018-12-02T05:27:01.260Z,984.89
2018-12-02T05:28:01.209Z,984.85
2018-12-02T05:29:01.200Z,984.85
2018-12-02T05:30:01.193Z,984.86
2018-12-02T05:31:01.203Z,984.82
2018-12-02T05:32:01.193Z,984.80
2018-12-02T05:33:01.190Z,984.71
2018-12-02T05:34:01.141Z,984.76
2018-12-02T05:35:01.129Z,984.77
2018-12-02T05:36:01.143Z,984.78
2018-12-02T05:37:01.106Z,984.70
2018-12-02T05:38:01.131Z,984.75
2018-12-02T05:39:01.091Z,984.74
2018-12-02T05:40:01.074Z,984.71
2018-12-02T05:41:01.061Z,984.72
2018-12-02T05:42:01.056Z,984.71
2018-12-02T05:43:01.059Z,984.67
2018-12-02T05:44:01.027Z,984.66
2018-12-02T05:45:01.037Z,984.60
2018-12-02T05:46:01.033Z,984.63
2018-12-02T05:47:01.012Z,984.59
2018-12-02T05:48:00.981Z,984.61
2018-12-02T05:49:00.971Z,984.59
2018-12-02T05:50:00.985Z,984.58
2018-12-02T05:51:00.978Z,984.52
2018-12-02T05:52:00.936Z,984.49
2018-12-02T05:53:00.955Z,984.53
2018-12-02T05:54:00.917Z,984.51
2018-12-02T05:55:00.903Z,984.50
2018-12-02T05:56:00.931Z,984.47
2018-12-02T05:57:00.880Z,984.41
2018-12-02T05:58:00.869Z,984.43
2018-12-02T05:59:00.857Z,984.35
2018-12-02T06:00:00.849Z,984.34
2018-12-02T06:01:00.857Z,984.33
2018-12-02T06:02:00.839Z,984.33
2018-12-02T06:03:00.815Z,984.35
2018-12-02T06:04:00.800Z,984.31
2018-12-02T06:05:00.820Z,984.31
2018-12-02T06:06:00.777Z,984.32
2018-12-02T06:07:00.799Z,984.24
2018-12-02T06:08:00.763Z,984.24
2018-12-02T06:09:00.747Z,984.27
2018-12-02T06:10:00.731Z,984.25
2018-12-02T06:11:00.751Z,984.17
2018-12-02T06:12:00.710Z,984.23
2018-12-02T06:13:00.698Z,984.17
2018-12-02T06:14:00.696Z,984.17
2018-12-02T06:15:00.676Z,984.17
2018-12-02T06:16:00.693Z,984.15
2018-12-02T06:17:00.653Z,984.18
2018-12-02T06:18:00.643Z,984.17
2018-12-02T06:19:00.632Z,984.17
2018-12-02T06:20:04.677Z,984.13
2018-12-02T06:21:00.638Z,984.15
2018-12-02T06:22:00.597Z,984.14
2018-12-02T06:23:00.586Z,984.08
2018-12-02T06:24:00.581Z,984.03
2018-12-02T06:25:00.562Z,984.04
2018-12-02T06:26:00.598Z,984.03
2018-12-02T06:27:00.543Z,984.06
2018-12-02T06:28:00.530Z,984.06
2018-12-02T06:29:00.517Z,984.03
2018-12-02T06:30:00.523Z,984.00
2018-12-02T06:31:00.496Z,984.02
2018-12-02T06:32:00.496Z,983.99
2018-12-02T06:33:00.500Z,983.96
2018-12-02T06:34:00.465Z,983.97
2018-12-02T06:35:00.449Z,983.97
2018-12-02T06:36:00.467Z,983.93
2018-12-02T06:37:00.427Z,983.94
2018-12-02T06:38:00.424Z,983.87
2018-12-02T06:39:00.406Z,983.90
2018-12-02T06:40:00.394Z,983.93
2018-12-02T06:41:00.408Z,983.92
2018-12-02T06:42:00.370Z,983.89
2018-12-02T06:43:00.365Z,983.92
2018-12-02T06:44:00.358Z,983.86
2018-12-02T06:45:00.336Z,983.91
2018-12-02T06:46:00.351Z,983.86
2018-12-02T06:47:00.350Z,983.83
2018-12-02T06:48:00.303Z,983.90
2018-12-02T06:49:00.292Z,983.86
2018-12-02T06:50:00.284Z,983.86
2018-12-02T06:51:00.328Z,983.84
2018-12-02T06:52:00.290Z,983.80
2018-12-02T06:53:00.250Z,983.77
2018-12-02T06:54:00.240Z,983.81
2018-12-02T06:55:00.229Z,983.81
2018-12-02T06:56:00.219Z,983.82
2018-12-02T06:57:00.224Z,983.77
2018-12-02T06:58:00.192Z,983.78
2018-12-02T06:59:00.188Z,983.76
2018-12-02T07:00:00.170Z,983.72
2018-12-02T07:01:00.200Z,983.76
2018-12-02T07:02:00.145Z,983.73
2018-12-02T07:03:00.141Z,983.68
2018-12-02T07:04:00.125Z,983.72
2018-12-02T07:05:00.181Z,983.68
2018-12-02T07:06:00.099Z,983.72
2018-12-02T07:07:00.088Z,983.70
2018-12-02T07:08:00.081Z,983.68
2018-12-02T07:09:00.069Z,983.67
2018-12-02T07:10:00.107Z,983.68
2018-12-02T07:11:00.050Z,983.67
2018-12-02T07:12:00.131Z,983.65
2018-12-02T07:13:00.021Z,983.63
2018-12-02T07:14:00.044Z,983.60
2018-12-02T07:15:00.002Z,983.59
2018-12-02T07:15:59.993Z,983.61
2018-12-02T07:17:00.002Z,983.59
2018-12-02T07:17:59.964Z,983.60
2018-12-02T07:18:59.954Z,983.61
2018-12-02T07:19:59.973Z,983.58
2018-12-02T07:20:59.936Z,983.59
2018-12-02T07:21:59.967Z,983.58
2018-12-02T07:22:59.910Z,983.59
2018-12-02T07:23:59.926Z,983.57
2018-12-02T07:24:59.886Z,983.53
2018-12-02T07:25:59.875Z,983.51
2018-12-02T07:26:59.887Z,983.50
2018-12-02T07:27:59.886Z,983.47
2018-12-02T07:28:59.844Z,983.46
2018-12-02T07:29:59.861Z,983.45
2018-12-02T07:30:59.821Z,983.45
2018-12-02T07:31:59.805Z,983.42
2018-12-02T07:32:59.822Z,983.35
2018-12-02T07:33:59.783Z,983.36
2018-12-02T07:34:59.798Z,983.41
2018-12-02T07:35:59.789Z,983.32
2018-12-02T07:36:59.749Z,983.34
2018-12-02T07:37:59.741Z,983.29
2018-12-02T07:38:59.757Z,983.25
2018-12-02T07:39:59.716Z,983.27
2018-12-02T07:40:59.708Z,983.26
2018-12-02T07:41:59.697Z,983.24
2018-12-02T07:42:59.694Z,983.21
2018-12-02T07:43:59.698Z,983.20
2018-12-02T07:44:59.676Z,983.16
2018-12-02T07:45:59.649Z,983.18
2018-12-02T07:46:59.665Z,983.16
2018-12-02T07:47:59.626Z,983.15
2018-12-02T07:48:59.676Z,983.13
2018-12-02T07:49:59.603Z,983.15
2018-12-02T07:50:59.596Z,983.10
2018-12-02T07:51:59.583Z,983.14
2018-12-02T07:53:00.987Z,983.05
2018-12-02T07:53:59.573Z,983.09
2018-12-02T07:54:59.549Z,983.09
2018-12-02T07:55:59.535Z,983.07
2018-12-02T07:56:59.523Z,983.07
2018-12-02T07:57:59.530Z,983.08
2018-12-02T07:58:59.532Z,983.10
2018-12-02T07:59:59.493Z,983.10
2018-12-02T08:00:59.508Z,983.10
2018-12-02T08:01:59.467Z,983.08
2018-12-02T08:02:59.467Z,983.11
2018-12-02T08:03:59.471Z,983.13
2018-12-02T08:04:59.433Z,983.11
2018-12-02T08:05:59.437Z,983.10
2018-12-02T08:06:59.411Z,983.06
2018-12-02T08:07:59.437Z,983.13
2018-12-02T08:08:59.436Z,983.04
2018-12-02T08:09:59.377Z,983.01
2018-12-02T08:10:59.627Z,983.05
2018-12-02T08:11:59.353Z,983.06
2018-12-02T08:12:59.347Z,983.09
2018-12-02T08:13:59.363Z,983.07
2018-12-02T08:14:59.349Z,983.03
2018-12-02T08:15:59.346Z,983.02
2018-12-02T08:16:59.298Z,983.00
2018-12-02T08:17:59.293Z,982.99
2018-12-02T08:18:59.273Z,982.97
2018-12-02T08:19:59.285Z,982.95
2018-12-02T08:20:59.251Z,982.98
2018-12-02T08:21:59.262Z,982.97
2018-12-02T08:22:59.228Z,982.96
2018-12-02T08:23:59.251Z,982.91
2018-12-02T08:24:59.219Z,982.90
2018-12-02T08:25:59.194Z,982.90
2018-12-02T08:26:59.182Z,982.86
2018-12-02T08:27:59.183Z,982.82
2018-12-02T08:28:59.189Z,982.79
2018-12-02T08:29:59.154Z,982.83
2018-12-02T08:30:59.152Z,982.86
2018-12-02T08:31:59.126Z,982.83
2018-12-02T08:32:59.145Z,982.80
2018-12-02T08:33:59.121Z,982.77
2018-12-02T08:34:59.091Z,982.74
2018-12-02T08:35:59.082Z,982.74
2018-12-02T08:36:59.073Z,982.74
2018-12-02T08:37:59.088Z,982.64
2018-12-02T08:38:59.070Z,982.69
2018-12-02T08:39:59.055Z,982.69
2018-12-02T08:40:59.027Z,982.72
2018-12-02T08:41:59.012Z,982.68
2018-12-02T08:42:59.024Z,982.70
2018-12-02T08:43:58.997Z,982.72
2018-12-02T08:44:59.030Z,982.72
2018-12-02T08:45:58.966Z,982.74
2018-12-02T08:46:58.955Z,982.76
2018-12-02T08:47:58.967Z,982.73
2018-12-02T08:48:58.932Z,982.75
2018-12-02T08:49:58.948Z,982.73
2018-12-02T08:50:58.910Z,982.76
2018-12-02T08:51:58.903Z,982.75
2018-12-02T08:52:58.924Z,982.71
2018-12-02T08:53:58.899Z,982.66
2018-12-02T08:54:58.870Z,982.60
2018-12-02T08:55:58.858Z,982.70
2018-12-02T08:56:58.844Z,982.66
2018-12-02T08:57:58.868Z,982.72
2018-12-02T08:58:58.821Z,982.66
2018-12-02T08:59:58.817Z,982.71
2018-12-02T09:00:58.839Z,982.70
2018-12-02T09:01:58.819Z,982.66
2018-12-02T09:02:58.793Z,982.76
2018-12-02T09:03:58.764Z,982.73
2018-12-02T09:04:58.755Z,982.71
2018-12-02T09:05:58.791Z,982.70
2018-12-02T09:06:58.731Z,982.66
2018-12-02T09:07:58.718Z,982.65
2018-12-02T09:08:58.709Z,982.61
2018-12-02T09:09:59.654Z,982.63
2018-12-02T09:10:58.723Z,982.63
2018-12-02T09:11:58.691Z,982.62
2018-12-02T09:12:58.667Z,982.60
2018-12-02T09:13:58.651Z,982.62
2018-12-02T09:14:58.644Z,982.61
2018-12-02T09:15:58.655Z,982.61
2018-12-02T09:16:58.619Z,982.61
2018-12-02T09:17:58.647Z,982.55
2018-12-02T09:18:58.595Z,982.55
2018-12-02T09:19:58.587Z,982.52
2018-12-02T09:20:58.599Z,982.48
2018-12-02T09:21:58.588Z,982.48
2018-12-02T09:22:58.573Z,982.53
2018-12-02T09:23:58.564Z,982.51
2018-12-02T09:24:58.528Z,982.53
2018-12-02T09:25:58.517Z,982.51
2018-12-02T09:26:58.504Z,982.47
2018-12-02T09:27:58.517Z,982.46
2018-12-02T09:28:58.483Z,982.43
2018-12-02T09:29:58.500Z,982.43
2018-12-02T09:30:58.463Z,982.41
2018-12-02T09:31:58.453Z,982.41
2018-12-02T09:32:58.471Z,982.43
2018-12-02T09:33:58.425Z,982.44
2018-12-02T09:34:58.416Z,982.42
2018-12-02T09:35:58.429Z,982.38
2018-12-02T09:36:58.400Z,982.34
2018-12-02T09:37:58.380Z,982.31
2018-12-02T09:38:58.392Z,982.34
2018-12-02T09:39:58.359Z,982.26
2018-12-02T09:40:58.361Z,982.23
2018-12-02T09:41:58.335Z,982.34
2018-12-02T09:42:58.357Z,982.24
2018-12-02T09:43:58.336Z,982.31
2018-12-02T09:44:58.303Z,982.31
2018-12-02T09:45:58.291Z,982.29
2018-12-02T09:46:58.279Z,982.23
2018-12-02T09:47:58.302Z,982.26
2018-12-02T09:48:58.262Z,982.24
2018-12-02T09:49:58.260Z,982.20
2018-12-02T09:50:58.277Z,982.13
2018-12-02T09:51:58.224Z,982.17
2018-12-02T09:52:58.244Z,982.15
2018-12-02T09:53:58.201Z,982.13
2018-12-02T09:54:58.198Z,982.17
2018-12-02T09:55:58.178Z,982.13
2018-12-02T09:56:58.197Z,982.09
2018-12-02T09:57:58.164Z,982.14
2018-12-02T09:58:58.167Z,982.09
2018-12-02T09:59:58.135Z,982.12
2018-12-02T10:00:58.132Z,982.09
2018-12-02T10:01:58.113Z,982.09
2018-12-02T10:02:58.127Z,982.03
2018-12-02T10:03:58.121Z,982.04
2018-12-02T10:04:58.078Z,982.01
2018-12-02T10:05:58.072Z,982.01
2018-12-02T10:06:58.101Z,982.04
2018-12-02T10:07:58.043Z,982.05
2018-12-02T10:08:58.034Z,982.03
2018-12-02T10:09:58.297Z,981.99
2018-12-02T10:10:58.012Z,981.98
2018-12-02T10:11:58.027Z,982.02
2018-12-02T10:12:57.989Z,982.04
2018-12-02T10:13:58.003Z,982.02
2018-12-02T10:14:57.965Z,982.00
2018-12-02T10:15:57.954Z,982.03
2018-12-02T10:16:57.992Z,982.02
2018-12-02T10:17:57.957Z,982.00
2018-12-02T10:18:57.921Z,982.03
2018-12-02T10:19:57.911Z,981.96
2018-12-02T10:20:57.927Z,981.96
2018-12-02T10:21:57.912Z,981.91
2018-12-02T10:22:57.875Z,981.93
2018-12-02T10:23:57.869Z,981.90
2018-12-02T10:24:57.851Z,981.87
2018-12-02T10:25:57.861Z,981.87
2018-12-02T10:26:57.851Z,981.81
2018-12-02T10:27:57.818Z,981.84
2018-12-02T10:28:57.823Z,981.82
2018-12-02T10:29:57.817Z,981.78
2018-12-02T10:30:57.785Z,981.81
2018-12-02T10:31:57.825Z,981.78
2018-12-02T10:32:57.767Z,981.76
2018-12-02T10:33:57.755Z,981.73
2018-12-02T10:34:57.741Z,981.74
2018-12-02T10:35:57.770Z,981.73
2018-12-02T10:36:57.716Z,981.72
2018-12-02T10:37:57.706Z,981.71
2018-12-02T10:38:57.716Z,981.72
2018-12-02T10:39:57.687Z,981.70
2018-12-02T10:40:57.696Z,981.74
2018-12-02T10:41:57.661Z,981.73
2018-12-02T10:42:57.652Z,981.71
2018-12-02T10:43:57.669Z,981.71
2018-12-02T10:44:57.659Z,981.67
2018-12-02T10:45:57.641Z,981.66
2018-12-02T10:46:58.514Z,981.64
2018-12-02T10:47:57.598Z,981.70
2018-12-02T10:48:57.588Z,981.61
2018-12-02T10:49:57.579Z,981.66
2018-12-02T10:50:57.589Z,981.62
2018-12-02T10:51:57.556Z,981.63
2018-12-02T10:52:57.593Z,981.70
2018-12-02T10:53:57.526Z,981.68
2018-12-02T10:54:57.518Z,981.68
2018-12-02T10:55:57.533Z,981.67
2018-12-02T10:56:57.503Z,981.64
2018-12-02T10:57:57.501Z,981.62
2018-12-02T10:58:57.497Z,981.62
2018-12-02T10:59:57.464Z,981.57
2018-12-02T11:00:57.461Z,981.51
2018-12-02T11:01:57.436Z,981.53
2018-12-02T11:02:57.429Z,981.47
2018-12-02T11:03:57.437Z,981.44
2018-12-02T11:04:57.402Z,981.51
2018-12-02T11:05:57.392Z,981.49
2018-12-02T11:06:57.393Z,981.48
2018-12-02T11:07:57.405Z,981.45
2018-12-02T11:08:57.396Z,981.43
2018-12-02T11:09:57.350Z,981.41
2018-12-02T11:10:57.717Z,981.45
2018-12-02T11:11:57.451Z,981.40
2018-12-02T11:12:58.460Z,981.44
2018-12-02T11:13:59.494Z,981.45
2018-12-02T11:14:57.613Z,981.42
2018-12-02T11:15:57.742Z,981.35
2018-12-02T11:16:57.267Z,981.34
2018-12-02T11:17:57.262Z,981.32
2018-12-02T11:18:57.245Z,981.33
2018-12-02T11:19:57.256Z,981.36
2018-12-02T11:20:57.222Z,981.34
2018-12-02T11:21:57.213Z,981.36
2018-12-02T11:22:57.199Z,981.32
2018-12-02T11:23:57.190Z,981.30
2018-12-02T11:24:57.201Z,981.31
2018-12-02T11:25:57.224Z,981.29
2018-12-02T11:26:57.180Z,981.30
2018-12-02T11:27:57.168Z,981.25
2018-12-02T11:28:57.134Z,981.29
2018-12-02T11:29:57.124Z,981.30
2018-12-02T11:30:57.111Z,981.28
2018-12-02T11:31:57.109Z,981.28
2018-12-02T11:32:57.115Z,981.28
2018-12-02T11:33:57.082Z,981.25
2018-12-02T11:34:57.090Z,981.26
2018-12-02T11:35:57.062Z,981.27
2018-12-02T11:36:57.264Z,981.25
2018-12-02T11:37:57.029Z,981.29
2018-12-02T11:38:57.023Z,981.27
2018-12-02T11:39:57.038Z,981.28
2018-12-02T11:40:56.997Z,981.27
2018-12-02T11:41:57.018Z,981.28
2018-12-02T11:42:56.977Z,981.26
2018-12-02T11:43:56.962Z,981.30
2018-12-02T11:44:57.899Z,981.25
2018-12-02T11:45:56.964Z,981.25
2018-12-02T11:46:56.950Z,981.23
2018-12-02T11:47:56.917Z,981.21
2018-12-02T11:48:56.950Z,981.22
2018-12-02T11:49:56.902Z,981.18
2018-12-02T11:50:56.884Z,981.17
2018-12-02T11:51:56.879Z,981.17
2018-12-02T11:52:56.872Z,981.20
2018-12-02T11:53:56.966Z,981.23
2018-12-02T11:54:56.858Z,981.21
2018-12-02T11:55:56.832Z,981.21
2018-12-02T11:56:56.847Z,981.16
2018-12-02T11:57:56.844Z,981.20
2018-12-02T11:58:56.815Z,981.13
2018-12-02T11:59:56.804Z,981.12
2018-12-02T12:00:56.800Z,981.15
2018-12-02T12:01:56.765Z,981.08
2018-12-02T12:02:56.747Z,981.14
2018-12-02T12:03:56.763Z,981.16
2018-12-02T12:04:56.758Z,981.11
2018-12-02T12:05:56.716Z,981.13
2018-12-02T12:06:56.705Z,981.18
2018-12-02T12:07:56.695Z,981.11
2018-12-02T12:08:56.680Z,981.11
2018-12-02T12:09:56.693Z,981.12
2018-12-02T12:10:56.685Z,981.11
2018-12-02T12:11:56.674Z,981.11
2018-12-02T12:12:56.639Z,981.11
2018-12-02T12:13:56.626Z,981.10
2018-12-02T12:14:56.614Z,981.08
2018-12-02T12:15:56.606Z,981.12
2018-12-02T12:16:56.623Z,981.03
2018-12-02T12:17:56.628Z,981.01
2018-12-02T12:18:56.569Z,981.01
2018-12-02T12:19:56.556Z,980.97
2018-12-02T12:20:56.544Z,980.97
2018-12-02T12:21:56.534Z,980.99
2018-12-02T12:22:56.561Z,980.99
2018-12-02T12:23:56.515Z,981.01
2018-12-02T12:24:56.515Z,980.98
2018-12-02T12:25:56.505Z,981.07
2018-12-02T12:26:56.479Z,981.05
2018-12-02T12:27:56.491Z,981.07